createdAt,value
2023-01-29T00:00:51.959Z,0
2023-01-29T00:01:52.149Z,0
2023-01-29T00:02:52.013Z,0
2023-01-29T00:03:51.961Z,0
2023-01-29T00:04:51.960Z,0
2023-01-29T00:05:51.978Z,0
2023-01-29T00:06:51.966Z,0
2023-01-29T00:07:51.964Z,0
2023-01-29T00:08:51.965Z,0
2023-01-29T00:09:51.992Z,0
2023-01-29T00:10:51.967Z,0
2023-01-29T00:11:51.964Z,0
2023-01-29T00:12:52.045Z,0
2023-01-29T00:13:51.972Z,0
2023-01-29T00:14:51.982Z,0
2023-01-29T00:15:51.970Z,0
2023-01-29T00:16:51.990Z,0
2023-01-29T00:17:51.980Z,0
2023-01-29T00:18:51.980Z,0
2023-01-29T00:19:51.979Z,0
2023-01-29T00:20:51.984Z,0
2023-01-29T00:21:51.984Z,0
2023-01-29T00:22:51.990Z,0
2023-01-29T00:23:51.985Z,0
2023-01-29T00:24:51.992Z,0
2023-01-29T00:25:52.014Z,0
2023-01-29T00:26:51.994Z,0
2023-01-29T00:27:51.992Z,0
2023-01-29T00:28:52.005Z,0
2023-01-29T00:29:51.997Z,0
2023-01-29T00:30:51.996Z,0
2023-01-29T00:31:52.071Z,0
2023-01-29T00:32:52.003Z,0
2023-01-29T00:33:52.011Z,0
2023-01-29T00:34:52.004Z,0
2023-01-29T00:35:52.003Z,0
2023-01-29T00:36:52.008Z,0
2023-01-29T00:37:52.015Z,0
2023-01-29T00:38:52.008Z,0
2023-01-29T00:39:52.010Z,0
2023-01-29T00:40:52.012Z,0
2023-01-29T00:41:52.062Z,0
2023-01-29T00:42:52.035Z,0
2023-01-29T00:43:52.013Z,0
2023-01-29T00:44:52.015Z,0
2023-01-29T00:45:52.014Z,0
2023-01-29T00:46:52.049Z,0
2023-01-29T00:47:52.020Z,0
2023-01-29T00:48:52.023Z,0
2023-01-29T00:49:52.018Z,0
2023-01-29T00:50:52.017Z,0
2023-01-29T00:51:52.023Z,0
2023-01-29T00:52:52.025Z,0
2023-01-29T00:53:52.026Z,0
2023-01-29T00:54:52.020Z,0
2023-01-29T00:55:52.023Z,0
2023-01-29T00:56:52.023Z,0
2023-01-29T00:57:52.046Z,0
2023-01-29T00:58:52.027Z,0
2023-01-29T00:59:52.024Z,0
2023-01-29T01:00:52.067Z,0
2023-01-29T01:01:52.056Z,0
2023-01-29T01:02:52.042Z,0
2023-01-29T01:03:52.033Z,0
2023-01-29T01:04:52.030Z,0
2023-01-29T01:05:52.035Z,0
2023-01-29T01:06:52.030Z,0
2023-01-29T01:07:52.033Z,0
2023-01-29T01:08:52.034Z,0
2023-01-29T01:09:52.046Z,0
2023-01-29T01:10:52.038Z,0
2023-01-29T01:11:52.037Z,0
2023-01-29T01:12:52.044Z,0
2023-01-29T01:13:52.062Z,0
2023-01-29T01:14:52.039Z,0
2023-01-29T01:15:52.043Z,0
2023-01-29T01:16:52.039Z,0
2023-01-29T01:17:52.042Z,0
2023-01-29T01:18:52.042Z,0
2023-01-29T01:19:52.045Z,0
2023-01-29T01:20:52.043Z,0
2023-01-29T01:21:52.045Z,0
2023-01-29T01:22:52.040Z,0
2023-01-29T01:23:52.043Z,0
2023-01-29T01:24:52.050Z,0
2023-01-29T01:25:52.047Z,0
2023-01-29T01:26:52.047Z,0
2023-01-29T01:27:52.046Z,0
2023-01-29T01:28:52.045Z,0
2023-01-29T01:29:52.078Z,0
2023-01-29T01:30:52.130Z,0
2023-01-29T01:31:52.077Z,0
2023-01-29T01:32:52.048Z,0
2023-01-29T01:33:52.049Z,0
2023-01-29T01:34:52.053Z,0
2023-01-29T01:35:52.053Z,0
2023-01-29T01:36:52.056Z,0
2023-01-29T01:37:52.052Z,0
2023-01-29T01:38:52.055Z,0
2023-01-29T01:39:52.052Z,0
2023-01-29T01:40:52.057Z,0
2023-01-29T01:41:52.055Z,0
2023-01-29T01:42:52.061Z,0
2023-01-29T01:43:52.055Z,0
2023-01-29T01:44:52.058Z,0
2023-01-29T01:45:52.173Z,0
2023-01-29T01:46:52.059Z,0
2023-01-29T01:47:52.054Z,0
2023-01-29T01:48:52.060Z,0
2023-01-29T01:49:52.061Z,0
2023-01-29T01:50:52.060Z,0
2023-01-29T01:51:52.059Z,0
2023-01-29T01:52:52.069Z,0
2023-01-29T01:53:52.055Z,0
2023-01-29T01:54:52.060Z,0
2023-01-29T01:55:52.076Z,0
2023-01-29T01:56:52.058Z,0
2023-01-29T01:57:52.058Z,0
2023-01-29T01:58:52.061Z,0
2023-01-29T01:59:52.059Z,0
2023-01-29T02:00:52.059Z,0
2023-01-29T02:01:52.128Z,0
2023-01-29T02:02:52.056Z,0
2023-01-29T02:03:52.060Z,0
2023-01-29T02:04:52.065Z,0
2023-01-29T02:05:52.063Z,0
2023-01-29T02:06:52.062Z,0
2023-01-29T02:07:52.065Z,0
2023-01-29T02:08:52.069Z,0
2023-01-29T02:09:52.074Z,0
2023-01-29T02:10:52.077Z,0
2023-01-29T02:11:52.074Z,0
2023-01-29T02:12:52.077Z,0
2023-01-29T02:13:52.084Z,0
2023-01-29T02:14:52.100Z,0
2023-01-29T02:15:52.091Z,0
2023-01-29T02:16:52.095Z,0
2023-01-29T02:17:52.119Z,0
2023-01-29T02:18:52.096Z,0
2023-01-29T02:19:52.091Z,0
2023-01-29T02:20:52.094Z,0
2023-01-29T02:21:52.095Z,0
2023-01-29T02:22:52.093Z,0
2023-01-29T02:23:52.212Z,0
2023-01-29T02:24:52.106Z,0
2023-01-29T02:25:52.107Z,0
2023-01-29T02:26:52.101Z,0
2023-01-29T02:27:52.106Z,0
2023-01-29T02:28:52.106Z,0
2023-01-29T02:29:52.105Z,0
2023-01-29T02:30:52.132Z,0
2023-01-29T02:31:52.147Z,0
2023-01-29T02:32:52.113Z,0
2023-01-29T02:33:52.143Z,0
2023-01-29T02:34:52.116Z,0
2023-01-29T02:35:52.125Z,0
2023-01-29T02:36:52.120Z,0
2023-01-29T02:37:52.132Z,0
2023-01-29T02:38:52.125Z,0
2023-01-29T02:39:52.127Z,0
2023-01-29T02:40:52.134Z,0
2023-01-29T02:41:52.148Z,0
2023-01-29T02:42:52.131Z,0
2023-01-29T02:43:52.133Z,0
2023-01-29T02:44:52.146Z,0
2023-01-29T02:45:52.183Z,0
2023-01-29T02:46:52.148Z,0
2023-01-29T02:47:52.148Z,0
2023-01-29T02:48:52.149Z,0
2023-01-29T02:49:52.179Z,0
2023-01-29T02:50:52.158Z,0
2023-01-29T02:51:52.151Z,0
2023-01-29T02:52:52.149Z,0
2023-01-29T02:53:52.166Z,0
2023-01-29T02:54:52.153Z,0
2023-01-29T02:55:52.155Z,0
2023-01-29T02:56:52.160Z,0
2023-01-29T02:57:52.165Z,0
2023-01-29T02:58:52.163Z,0
2023-01-29T02:59:52.163Z,0
2023-01-29T03:00:52.183Z,0
2023-01-29T03:01:52.160Z,0
2023-01-29T03:02:52.164Z,0
2023-01-29T03:03:52.161Z,0
2023-01-29T03:04:52.161Z,0
2023-01-29T03:05:52.185Z,0
2023-01-29T03:06:52.162Z,0
2023-01-29T03:07:52.162Z,0
2023-01-29T03:08:52.178Z,0
2023-01-29T03:09:52.165Z,0
2023-01-29T03:10:52.170Z,0
2023-01-29T03:11:52.172Z,0
2023-01-29T03:12:52.171Z,0
2023-01-29T03:13:52.180Z,0
2023-01-29T03:14:52.178Z,0
2023-01-29T03:15:52.195Z,0
2023-01-29T03:16:52.194Z,0
2023-01-29T03:17:52.194Z,0
2023-01-29T03:18:52.180Z,0
2023-01-29T03:19:52.181Z,0
2023-01-29T03:20:52.197Z,0
2023-01-29T03:21:52.218Z,0
2023-01-29T03:22:52.193Z,0
2023-01-29T03:23:52.195Z,0
2023-01-29T03:24:52.195Z,0
2023-01-29T03:25:52.196Z,0
2023-01-29T03:26:52.200Z,0
2023-01-29T03:27:52.193Z,0
2023-01-29T03:28:52.195Z,0
2023-01-29T03:29:52.201Z,0
2023-01-29T03:30:52.236Z,0
2023-01-29T03:31:52.203Z,0
2023-01-29T03:32:52.203Z,0
2023-01-29T03:33:52.200Z,0
2023-01-29T03:34:52.200Z,0
2023-01-29T03:35:52.216Z,0
2023-01-29T03:36:52.207Z,0
2023-01-29T03:37:52.248Z,0
2023-01-29T03:38:52.218Z,0
2023-01-29T03:39:52.215Z,0
2023-01-29T03:40:52.215Z,0
2023-01-29T03:41:52.218Z,0
2023-01-29T03:42:52.222Z,0
2023-01-29T03:43:52.219Z,0
2023-01-29T03:44:52.222Z,0
2023-01-29T03:45:52.368Z,0
2023-01-29T03:46:52.225Z,0
2023-01-29T03:47:52.247Z,0
2023-01-29T03:48:52.229Z,56
2023-01-29T03:49:52.236Z,0
2023-01-29T03:50:52.232Z,0
2023-01-29T03:51:52.235Z,0
2023-01-29T03:52:52.234Z,0
2023-01-29T03:53:52.239Z,0
2023-01-29T03:54:52.239Z,0
2023-01-29T03:55:52.243Z,0
2023-01-29T03:56:52.239Z,0
2023-01-29T03:57:52.243Z,0
2023-01-29T03:58:52.246Z,0
2023-01-29T03:59:52.246Z,0
2023-01-29T04:00:52.248Z,0
2023-01-29T04:01:52.249Z,0
2023-01-29T04:02:52.263Z,0
2023-01-29T04:03:52.267Z,0
2023-01-29T04:04:52.255Z,0
2023-01-29T04:05:52.256Z,0
2023-01-29T04:06:52.257Z,0
2023-01-29T04:07:52.260Z,0
2023-01-29T04:08:52.264Z,0
2023-01-29T04:09:52.261Z,0
2023-01-29T04:10:52.262Z,0
2023-01-29T04:11:52.262Z,0
2023-01-29T04:12:52.263Z,0
2023-01-29T04:13:52.273Z,0
2023-01-29T04:14:52.271Z,0
2023-01-29T04:15:52.271Z,0
2023-01-29T04:16:52.287Z,0
2023-01-29T04:17:52.276Z,0
2023-01-29T04:18:52.275Z,0
2023-01-29T04:19:52.280Z,0
2023-01-29T04:20:52.279Z,0
2023-01-29T04:21:52.283Z,0
2023-01-29T04:22:52.279Z,0
2023-01-29T04:23:52.283Z,0
2023-01-29T04:24:52.284Z,0
2023-01-29T04:25:52.285Z,0
2023-01-29T04:26:52.284Z,0
2023-01-29T04:27:52.285Z,0
2023-01-29T04:28:52.289Z,0
2023-01-29T04:29:52.291Z,0
2023-01-29T04:30:52.364Z,0
2023-01-29T04:31:52.310Z,0
2023-01-29T04:32:52.294Z,0
2023-01-29T04:33:52.297Z,0
2023-01-29T04:34:52.339Z,0
2023-01-29T04:35:52.304Z,0
2023-01-29T04:36:52.299Z,0
2023-01-29T04:37:52.300Z,0
2023-01-29T04:38:52.300Z,0
2023-01-29T04:39:52.305Z,0
2023-01-29T04:40:52.306Z,0
2023-01-29T04:41:52.302Z,0
2023-01-29T04:42:52.304Z,0
2023-01-29T04:43:52.313Z,0
2023-01-29T04:44:52.309Z,0
2023-01-29T04:45:52.308Z,0
2023-01-29T04:46:52.315Z,0
2023-01-29T04:47:52.313Z,0
2023-01-29T04:48:52.313Z,0
2023-01-29T04:49:52.315Z,0
2023-01-29T04:50:52.318Z,0
2023-01-29T04:51:52.330Z,0
2023-01-29T04:52:52.317Z,0
2023-01-29T04:53:52.321Z,0
2023-01-29T04:54:52.319Z,0
2023-01-29T04:55:52.321Z,0
2023-01-29T04:56:52.322Z,0
2023-01-29T04:57:52.326Z,0
2023-01-29T04:58:52.328Z,0
2023-01-29T04:59:52.330Z,0
2023-01-29T05:00:52.330Z,0
2023-01-29T05:01:52.336Z,0
2023-01-29T05:02:52.345Z,0
2023-01-29T05:03:52.329Z,0
2023-01-29T05:04:52.333Z,0
2023-01-29T05:05:52.326Z,0
2023-01-29T05:06:52.330Z,0
2023-01-29T05:07:52.359Z,0
2023-01-29T05:08:52.334Z,0
2023-01-29T05:09:52.334Z,0
2023-01-29T05:10:52.337Z,0
2023-01-29T05:11:52.332Z,0
2023-01-29T05:12:52.337Z,0
2023-01-29T05:13:52.336Z,0
2023-01-29T05:14:52.337Z,0
2023-01-29T05:15:52.356Z,0
2023-01-29T05:16:52.336Z,0
2023-01-29T05:17:52.338Z,0
2023-01-29T05:18:52.339Z,0
2023-01-29T05:19:52.340Z,0
2023-01-29T05:20:52.347Z,0
2023-01-29T05:21:52.342Z,0
2023-01-29T05:22:52.344Z,0
2023-01-29T05:23:52.345Z,0
2023-01-29T05:24:52.355Z,0
2023-01-29T05:25:52.349Z,0
2023-01-29T05:26:52.356Z,0
2023-01-29T05:27:52.388Z,0
2023-01-29T05:28:52.355Z,0
2023-01-29T05:29:52.356Z,0
2023-01-29T05:30:52.376Z,0
2023-01-29T05:31:52.384Z,0
2023-01-29T05:32:52.369Z,0
2023-01-29T05:33:52.353Z,0
2023-01-29T05:34:52.358Z,0
2023-01-29T05:35:52.358Z,0
2023-01-29T05:36:52.364Z,0
2023-01-29T05:37:52.365Z,0
2023-01-29T05:38:52.364Z,0
2023-01-29T05:39:52.374Z,0
2023-01-29T05:40:52.363Z,0
2023-01-29T05:41:52.364Z,0
2023-01-29T05:42:52.360Z,0
2023-01-29T05:43:52.364Z,0
2023-01-29T05:44:52.422Z,0
2023-01-29T05:45:52.365Z,0
2023-01-29T05:46:52.437Z,0
2023-01-29T05:47:52.366Z,0
2023-01-29T05:48:52.369Z,0
2023-01-29T05:49:52.371Z,0
2023-01-29T05:50:52.389Z,0
2023-01-29T05:51:52.369Z,0
2023-01-29T05:52:52.371Z,0
2023-01-29T05:53:52.372Z,0
2023-01-29T05:54:52.376Z,0
2023-01-29T05:55:52.373Z,0
2023-01-29T05:56:52.372Z,0
2023-01-29T05:57:52.374Z,0
2023-01-29T05:58:52.378Z,0
2023-01-29T05:59:52.375Z,0
2023-01-29T06:00:52.383Z,0
2023-01-29T06:01:52.424Z,0
2023-01-29T06:02:52.458Z,0
2023-01-29T06:03:52.385Z,0
2023-01-29T06:04:52.394Z,0
2023-01-29T06:05:52.391Z,0
2023-01-29T06:06:52.384Z,0
2023-01-29T06:07:52.382Z,0
2023-01-29T06:08:52.401Z,0
2023-01-29T06:09:52.398Z,0
2023-01-29T06:10:52.381Z,0
2023-01-29T06:11:52.390Z,0
2023-01-29T06:12:52.397Z,0
2023-01-29T06:13:52.386Z,0
2023-01-29T06:14:52.387Z,1
2023-01-29T06:15:52.421Z,1
2023-01-29T06:16:52.398Z,1
2023-01-29T06:17:52.385Z,1
2023-01-29T06:18:52.385Z,1
2023-01-29T06:19:52.390Z,3
2023-01-29T06:20:52.386Z,3
2023-01-29T06:21:52.387Z,3
2023-01-29T06:22:52.397Z,3
2023-01-29T06:23:52.384Z,3
2023-01-29T06:24:52.398Z,7
2023-01-29T06:25:52.430Z,7
2023-01-29T06:26:52.391Z,7
2023-01-29T06:27:52.392Z,7
2023-01-29T06:28:52.390Z,7
2023-01-29T06:29:52.388Z,16
2023-01-29T06:30:52.429Z,16
2023-01-29T06:31:52.456Z,16
2023-01-29T06:32:52.389Z,16
2023-01-29T06:33:52.396Z,16
2023-01-29T06:34:52.389Z,29
2023-01-29T06:35:52.389Z,29
2023-01-29T06:36:52.390Z,29
2023-01-29T06:37:52.396Z,29
2023-01-29T06:38:52.398Z,29
2023-01-29T06:39:52.390Z,47
2023-01-29T06:40:52.395Z,47
2023-01-29T06:41:52.396Z,47
2023-01-29T06:42:52.402Z,47
2023-01-29T06:43:52.401Z,47
2023-01-29T06:44:52.404Z,69
2023-01-29T06:45:52.442Z,69
2023-01-29T06:46:52.402Z,69
2023-01-29T06:47:52.407Z,69
2023-01-29T06:48:52.410Z,69
2023-01-29T06:49:52.412Z,98
2023-01-29T06:50:52.411Z,98
2023-01-29T06:51:52.412Z,98
2023-01-29T06:52:52.418Z,98
2023-01-29T06:53:52.417Z,98
2023-01-29T06:54:52.433Z,138
2023-01-29T06:55:52.429Z,138
2023-01-29T06:56:52.424Z,138
2023-01-29T06:57:52.427Z,138
2023-01-29T06:58:52.423Z,138
2023-01-29T06:59:52.424Z,178
2023-01-29T07:00:52.461Z,178
2023-01-29T07:01:52.457Z,178
2023-01-29T07:02:52.433Z,178
2023-01-29T07:03:52.452Z,178
2023-01-29T07:04:52.440Z,222
2023-01-29T07:05:52.436Z,222
2023-01-29T07:06:52.436Z,222
2023-01-29T07:07:52.432Z,222
2023-01-29T07:08:52.436Z,282
2023-01-29T07:09:52.441Z,296
2023-01-29T07:10:52.440Z,296
2023-01-29T07:11:52.447Z,296
2023-01-29T07:12:52.441Z,296
2023-01-29T07:13:52.452Z,296
2023-01-29T07:14:52.444Z,347
2023-01-29T07:15:52.442Z,347
2023-01-29T07:16:52.449Z,347
2023-01-29T07:17:52.450Z,347
2023-01-29T07:18:52.442Z,347
2023-01-29T07:19:52.466Z,385
2023-01-29T07:20:52.454Z,385
2023-01-29T07:21:52.449Z,385
2023-01-29T07:22:52.458Z,385
2023-01-29T07:23:52.465Z,385
2023-01-29T07:24:52.473Z,428
2023-01-29T07:25:52.458Z,428
2023-01-29T07:26:52.457Z,428
2023-01-29T07:27:52.463Z,428
2023-01-29T07:28:52.468Z,428
2023-01-29T07:29:52.481Z,483
2023-01-29T07:30:52.471Z,483
2023-01-29T07:31:52.570Z,520
2023-01-29T07:32:52.471Z,526
2023-01-29T07:33:52.479Z,526
2023-01-29T07:34:52.478Z,526
2023-01-29T07:35:52.488Z,526
2023-01-29T07:36:52.482Z,526
2023-01-29T07:37:52.486Z,595
2023-01-29T07:38:52.483Z,595
2023-01-29T07:39:52.488Z,595
2023-01-29T07:40:52.485Z,595
2023-01-29T07:41:52.492Z,595
2023-01-29T07:42:52.491Z,690
2023-01-29T07:43:52.490Z,690
2023-01-29T07:44:52.486Z,690
2023-01-29T07:45:52.605Z,690
2023-01-29T07:46:52.493Z,690
2023-01-29T07:47:52.495Z,761
2023-01-29T07:48:52.495Z,761
2023-01-29T07:49:52.499Z,761
2023-01-29T07:50:52.501Z,761
2023-01-29T07:51:52.496Z,761
2023-01-29T07:52:52.498Z,831
2023-01-29T07:53:52.507Z,831
2023-01-29T07:54:52.503Z,831
2023-01-29T07:55:52.508Z,831
2023-01-29T07:56:52.506Z,831
2023-01-29T07:57:52.508Z,949
2023-01-29T07:58:52.513Z,949
2023-01-29T07:59:52.512Z,982
2023-01-29T08:00:52.549Z,982
2023-01-29T08:01:52.560Z,982
2023-01-29T08:02:52.520Z,982
2023-01-29T08:03:52.524Z,982
2023-01-29T08:04:52.527Z,1056
2023-01-29T08:05:52.539Z,1056
2023-01-29T08:06:52.532Z,1056
2023-01-29T08:08:05.528Z,1056
2023-01-29T08:08:52.532Z,1056
2023-01-29T08:09:52.537Z,1134
2023-01-29T08:10:52.581Z,1134
2023-01-29T08:11:52.537Z,1134
2023-01-29T08:12:52.540Z,1134
2023-01-29T08:13:52.543Z,1134
2023-01-29T08:14:52.541Z,1177
2023-01-29T08:15:52.540Z,1177
2023-01-29T08:16:52.593Z,1177
2023-01-29T08:17:57.667Z,1177
2023-01-29T08:18:52.543Z,1177
2023-01-29T08:19:52.548Z,1230
2023-01-29T08:20:52.928Z,1230
2023-01-29T08:21:52.547Z,1230
2023-01-29T08:22:52.552Z,1230
2023-01-29T08:23:52.553Z,1230
2023-01-29T08:24:54.177Z,1364
2023-01-29T08:25:52.578Z,1364
2023-01-29T08:26:52.557Z,1364
2023-01-29T08:27:52.567Z,1364
2023-01-29T08:28:52.561Z,1364
2023-01-29T08:29:52.567Z,1458
2023-01-29T08:30:52.616Z,1458
2023-01-29T08:31:52.615Z,1458
2023-01-29T08:32:52.575Z,1458
2023-01-29T08:33:52.580Z,1458
2023-01-29T08:34:52.576Z,1559
2023-01-29T08:35:52.575Z,1559
2023-01-29T08:36:52.579Z,1559
2023-01-29T08:37:52.579Z,1559
2023-01-29T08:38:52.582Z,1559
2023-01-29T08:39:52.584Z,1666
2023-01-29T08:40:52.582Z,1666
2023-01-29T08:41:52.582Z,1666
2023-01-29T08:42:52.584Z,1666
2023-01-29T08:43:52.589Z,1666
2023-01-29T08:44:52.588Z,1718
2023-01-29T08:45:52.625Z,1718
2023-01-29T08:46:52.590Z,1718
2023-01-29T08:47:52.591Z,1718
2023-01-29T08:48:52.590Z,1718
2023-01-29T08:49:52.594Z,1825
2023-01-29T08:50:52.600Z,1825
2023-01-29T08:51:52.596Z,1825
2023-01-29T08:52:52.591Z,1825
2023-01-29T08:53:52.594Z,1825
2023-01-29T08:54:52.598Z,2159
2023-01-29T08:55:52.596Z,2159
2023-01-29T08:56:52.601Z,2159
2023-01-29T08:57:52.596Z,2159
2023-01-29T08:58:52.612Z,2159
2023-01-29T08:59:52.599Z,2267
2023-01-29T09:00:52.692Z,2267
2023-01-29T09:01:52.605Z,2267
2023-01-29T09:02:52.611Z,2267
2023-01-29T09:03:52.619Z,2267
2023-01-29T09:04:52.610Z,2457
2023-01-29T09:05:52.610Z,2457
2023-01-29T09:06:52.609Z,2457
2023-01-29T09:07:54.031Z,2457
2023-01-29T09:08:52.607Z,2457
2023-01-29T09:09:52.612Z,2589
2023-01-29T09:10:52.612Z,2589
2023-01-29T09:11:52.611Z,2589
2023-01-29T09:12:52.608Z,2589
2023-01-29T09:13:52.608Z,2589
2023-01-29T09:14:52.614Z,2729
2023-01-29T09:15:52.620Z,2729
2023-01-29T09:16:52.629Z,2729
2023-01-29T09:17:52.617Z,2729
2023-01-29T09:18:52.618Z,2729
2023-01-29T09:19:52.623Z,2753
2023-01-29T09:20:52.619Z,2753
2023-01-29T09:21:52.621Z,2753
2023-01-29T09:22:52.625Z,2753
2023-01-29T09:23:52.626Z,2753
2023-01-29T09:24:52.625Z,2811
2023-01-29T09:25:52.627Z,2811
2023-01-29T09:26:52.630Z,2811
2023-01-29T09:27:52.656Z,2811
2023-01-29T09:28:52.629Z,2811
2023-01-29T09:29:52.629Z,3053
2023-01-29T09:30:52.747Z,3053
2023-01-29T09:31:52.729Z,3053
2023-01-29T09:32:54.105Z,3053
2023-01-29T09:33:52.630Z,3053
2023-01-29T09:34:52.637Z,3310
2023-01-29T09:35:52.636Z,3310
2023-01-29T09:36:52.638Z,3310
2023-01-29T09:37:52.754Z,3310
2023-01-29T09:38:52.641Z,3310
2023-01-29T09:39:52.649Z,3529
2023-01-29T09:40:52.641Z,3529
2023-01-29T09:41:52.654Z,3529
2023-01-29T09:42:52.646Z,3529
2023-01-29T09:43:52.649Z,3529
2023-01-29T09:44:52.650Z,4025
2023-01-29T09:45:52.672Z,4025
2023-01-29T09:46:52.659Z,4025
2023-01-29T09:47:52.647Z,4025
2023-01-29T09:48:52.652Z,4025
2023-01-29T09:49:52.653Z,4085
2023-01-29T09:50:52.655Z,4085
2023-01-29T09:51:52.665Z,4085
2023-01-29T09:52:52.655Z,4085
2023-01-29T09:53:52.657Z,4085
2023-01-29T09:54:52.658Z,4095
2023-01-29T09:55:52.668Z,4127
2023-01-29T09:56:52.661Z,4127
2023-01-29T09:57:52.652Z,4127
2023-01-29T09:58:52.659Z,4127
2023-01-29T09:59:52.665Z,4127
2023-01-29T10:00:52.673Z,4245
2023-01-29T10:01:52.763Z,4245
2023-01-29T10:02:52.662Z,4245
2023-01-29T10:03:52.659Z,4245
2023-01-29T10:04:52.732Z,4245
2023-01-29T10:05:52.666Z,4245
2023-01-29T10:06:52.662Z,5994
2023-01-29T10:07:52.661Z,7518
2023-01-29T10:08:52.661Z,9294
2023-01-29T10:09:52.662Z,9294
2023-01-29T10:10:52.658Z,9294
2023-01-29T10:11:52.660Z,9294
2023-01-29T10:12:52.660Z,9294
2023-01-29T10:13:52.662Z,5776
2023-01-29T10:14:52.661Z,5776
2023-01-29T10:15:52.662Z,5776
2023-01-29T10:16:52.748Z,5776
2023-01-29T10:17:52.662Z,9813
2023-01-29T10:18:52.662Z,7204
2023-01-29T10:19:52.656Z,7204
2023-01-29T10:20:52.660Z,7204
2023-01-29T10:21:52.658Z,7204
2023-01-29T10:22:52.660Z,7204
2023-01-29T10:23:52.662Z,5632
2023-01-29T10:24:52.664Z,5632
2023-01-29T10:25:52.666Z,5632
2023-01-29T10:26:52.673Z,5632
2023-01-29T10:27:52.698Z,5632
2023-01-29T10:28:52.661Z,10573
2023-01-29T10:29:52.667Z,10573
2023-01-29T10:30:52.755Z,10573
2023-01-29T10:31:52.786Z,10573
2023-01-29T10:32:52.664Z,10573
2023-01-29T10:34:02.250Z,10646
2023-01-29T10:34:52.662Z,10646
2023-01-29T10:35:53.416Z,10646
2023-01-29T10:36:52.665Z,10646
2023-01-29T10:37:52.668Z,10646
2023-01-29T10:38:52.668Z,10646
2023-01-29T10:39:52.671Z,10678
2023-01-29T10:40:52.672Z,10678
2023-01-29T10:41:53.960Z,10656
2023-01-29T10:42:52.667Z,10656
2023-01-29T10:43:52.700Z,10705
2023-01-29T10:44:52.677Z,10705
2023-01-29T10:45:52.667Z,10705
2023-01-29T10:46:52.670Z,10705
2023-01-29T10:47:52.772Z,10914
2023-01-29T10:48:52.670Z,10929
2023-01-29T10:49:52.671Z,10929
2023-01-29T10:50:52.677Z,10929
2023-01-29T10:51:52.670Z,10929
2023-01-29T10:52:52.671Z,11041
2023-01-29T10:53:52.665Z,11071
2023-01-29T10:54:52.691Z,11097
2023-01-29T10:55:52.666Z,11143
2023-01-29T10:56:52.674Z,11158
2023-01-29T10:57:52.678Z,11189
2023-01-29T10:58:52.669Z,11249
2023-01-29T10:59:52.668Z,11282
2023-01-29T11:00:52.678Z,11321
2023-01-29T11:01:52.709Z,11285
2023-01-29T11:02:53.021Z,11280
2023-01-29T11:03:52.672Z,11290
2023-01-29T11:04:52.671Z,11290
2023-01-29T11:05:52.668Z,11290
2023-01-29T11:06:52.670Z,11311
2023-01-29T11:07:52.670Z,11267
2023-01-29T11:08:52.669Z,11280
2023-01-29T11:09:52.672Z,11314
2023-01-29T11:10:52.672Z,11269
2023-01-29T11:11:52.672Z,11269
2023-01-29T11:12:52.669Z,11256
2023-01-29T11:13:52.670Z,11259
2023-01-29T11:14:52.671Z,11246
2023-01-29T11:15:52.676Z,11225
2023-01-29T11:16:52.677Z,11238
2023-01-29T11:17:52.675Z,11254
2023-01-29T11:18:52.682Z,11298
2023-01-29T11:19:52.672Z,11282
2023-01-29T11:20:52.670Z,11301
2023-01-29T11:21:52.671Z,11301
2023-01-29T11:22:52.669Z,11301
2023-01-29T11:23:52.671Z,11301
2023-01-29T11:24:52.671Z,11301
2023-01-29T11:25:52.672Z,11361
2023-01-29T11:26:52.669Z,11337
2023-01-29T11:27:52.677Z,11334
2023-01-29T11:28:52.671Z,11334
2023-01-29T11:29:52.672Z,11366
2023-01-29T11:30:52.789Z,11366
2023-01-29T11:31:52.695Z,11366
2023-01-29T11:32:52.671Z,11366
2023-01-29T11:33:52.672Z,11366
2023-01-29T11:34:52.671Z,11366
2023-01-29T11:35:52.813Z,11366
2023-01-29T11:36:52.672Z,11366
2023-01-29T11:37:52.672Z,11371
2023-01-29T11:38:52.670Z,11311
2023-01-29T11:39:52.673Z,11225
2023-01-29T11:40:52.672Z,11225
2023-01-29T11:41:52.684Z,11225
2023-01-29T11:42:52.674Z,11225
2023-01-29T11:43:52.668Z,11225
2023-01-29T11:44:52.675Z,11290
2023-01-29T11:45:52.697Z,11290
2023-01-29T11:46:52.669Z,11361
2023-01-29T11:47:52.673Z,11272
2023-01-29T11:48:53.587Z,11272
2023-01-29T11:49:52.669Z,11272
2023-01-29T11:50:52.675Z,11272
2023-01-29T11:51:52.676Z,11272
2023-01-29T11:52:52.676Z,11285
2023-01-29T11:53:52.670Z,11267
2023-01-29T11:54:52.677Z,11215
2023-01-29T11:55:52.672Z,11192
2023-01-29T11:56:52.669Z,11200
2023-01-29T11:57:52.674Z,11200
2023-01-29T11:58:52.673Z,11256
2023-01-29T11:59:52.676Z,11256
2023-01-29T12:00:52.672Z,11256
2023-01-29T12:01:52.672Z,11256
2023-01-29T12:02:52.669Z,11306
2023-01-29T12:03:52.706Z,11306
2023-01-29T12:04:52.676Z,11306
2023-01-29T12:05:52.676Z,11306
2023-01-29T12:06:52.696Z,11306
2023-01-29T12:07:52.672Z,11332
2023-01-29T12:08:52.674Z,11332
2023-01-29T12:09:52.672Z,11332
2023-01-29T12:10:52.671Z,11332
2023-01-29T12:11:52.749Z,11314
2023-01-29T12:12:52.674Z,11314
2023-01-29T12:13:52.673Z,11314
2023-01-29T12:14:52.686Z,11314
2023-01-29T12:15:54.798Z,11392
2023-01-29T12:16:52.680Z,11392
2023-01-29T12:17:52.695Z,11392
2023-01-29T12:18:52.682Z,11392
2023-01-29T12:19:52.676Z,11197
2023-01-29T12:20:52.675Z,10219
2023-01-29T12:21:52.674Z,10254
2023-01-29T12:22:52.675Z,10254
2023-01-29T12:23:52.677Z,10673
2023-01-29T12:24:52.676Z,10673
2023-01-29T12:25:52.675Z,10673
2023-01-29T12:26:52.681Z,10673
2023-01-29T12:27:52.685Z,10673
2023-01-29T12:28:52.685Z,11061
2023-01-29T12:29:52.685Z,11061
2023-01-29T12:30:52.744Z,11061
2023-01-29T12:31:52.683Z,11061
2023-01-29T12:32:52.689Z,11061
2023-01-29T12:33:52.690Z,10483
2023-01-29T12:34:52.690Z,10483
2023-01-29T12:35:52.693Z,10483
2023-01-29T12:36:52.691Z,10483
2023-01-29T12:37:52.698Z,10483
2023-01-29T12:38:52.703Z,10261
2023-01-29T12:39:52.694Z,10261
2023-01-29T12:40:52.698Z,10261
2023-01-29T12:41:52.698Z,10261
2023-01-29T12:42:52.700Z,10261
2023-01-29T12:43:52.696Z,10285
2023-01-29T12:44:52.698Z,10285
2023-01-29T12:45:52.699Z,10285
2023-01-29T12:46:52.819Z,10285
2023-01-29T12:47:52.715Z,10285
2023-01-29T12:48:52.704Z,9698
2023-01-29T12:49:52.702Z,9698
2023-01-29T12:50:52.713Z,9698
2023-01-29T12:51:52.705Z,9698
2023-01-29T12:52:52.714Z,9698
2023-01-29T12:53:52.710Z,9145
2023-01-29T12:54:52.710Z,9145
2023-01-29T12:55:52.707Z,9145
2023-01-29T12:56:52.721Z,9145
2023-01-29T12:57:52.705Z,9145
2023-01-29T12:58:52.712Z,8574
2023-01-29T12:59:52.717Z,8574
2023-01-29T13:00:52.764Z,8574
2023-01-29T13:01:52.715Z,8574
2023-01-29T13:02:52.759Z,9204
2023-01-29T13:03:52.713Z,9249
2023-01-29T13:04:52.726Z,9249
2023-01-29T13:05:52.729Z,9249
2023-01-29T13:06:52.731Z,9249
2023-01-29T13:07:52.720Z,9249
2023-01-29T13:08:52.714Z,9408
2023-01-29T13:09:52.718Z,9408
2023-01-29T13:10:52.724Z,9408
2023-01-29T13:11:52.726Z,9408
2023-01-29T13:12:52.723Z,9408
2023-01-29T13:13:53.908Z,8896
2023-01-29T13:14:52.726Z,8896
2023-01-29T13:15:52.725Z,8896
2023-01-29T13:16:52.736Z,8896
2023-01-29T13:17:52.727Z,8896
2023-01-29T13:18:52.725Z,8513
2023-01-29T13:19:52.729Z,8513
2023-01-29T13:20:52.731Z,8513
2023-01-29T13:21:52.729Z,8513
2023-01-29T13:22:52.732Z,8513
2023-01-29T13:23:52.726Z,8939
2023-01-29T13:25:03.926Z,8939
2023-01-29T13:25:52.773Z,8939
2023-01-29T13:26:52.728Z,8939
2023-01-29T13:27:52.731Z,8258
2023-01-29T13:28:52.736Z,8198
2023-01-29T13:29:52.728Z,8198
2023-01-29T13:30:52.764Z,8198
2023-01-29T13:31:52.740Z,8095
2023-01-29T13:32:52.730Z,8095
2023-01-29T13:33:52.733Z,8095
2023-01-29T13:34:52.738Z,8095
2023-01-29T13:35:52.733Z,8095
2023-01-29T13:36:52.744Z,7509
2023-01-29T13:37:52.735Z,7509
2023-01-29T13:38:52.739Z,7509
2023-01-29T13:39:52.739Z,7509
2023-01-29T13:40:52.736Z,7509
2023-01-29T13:41:52.736Z,6253
2023-01-29T13:42:52.736Z,6253
2023-01-29T13:43:52.740Z,6253
2023-01-29T13:44:52.739Z,6253
2023-01-29T13:45:52.792Z,6253
2023-01-29T13:46:52.748Z,6038
2023-01-29T13:47:52.741Z,6038
2023-01-29T13:48:52.747Z,6038
2023-01-29T13:49:52.753Z,6038
2023-01-29T13:50:52.747Z,6038
2023-01-29T13:51:52.745Z,4906
2023-01-29T13:52:52.741Z,4906
2023-01-29T13:53:52.744Z,4906
2023-01-29T13:54:52.748Z,4906
2023-01-29T13:55:52.756Z,4906
2023-01-29T13:56:52.747Z,4663